createdAt,value
2023-02-09T00:03:22.757Z,49.57
2023-02-09T00:08:25.364Z,39.87
2023-02-09T00:13:28.271Z,41.67
2023-02-09T00:18:33.929Z,44.07
2023-02-09T00:23:39.123Z,43.80
2023-02-09T00:28:41.652Z,50.10
2023-02-09T00:33:44.240Z,51.20
2023-02-09T00:38:46.791Z,48.80
2023-02-09T00:43:49.218Z,46.23
2023-02-09T00:48:51.679Z,44.53
2023-02-09T00:53:54.188Z,44.73
2023-02-09T00:58:56.713Z,36.83
2023-02-09T01:04:00.808Z,34.70
2023-02-09T01:09:03.689Z,42.10
2023-02-09T01:14:07.364Z,41.70
2023-02-09T01:19:13.551Z,37.30
2023-02-09T01:24:16.512Z,39.73
2023-02-09T01:29:20.223Z,41.23
2023-02-09T01:34:23.607Z,40.53
2023-02-09T01:39:26.222Z,45.53
2023-02-09T01:44:31.498Z,44.00
2023-02-09T01:49:34.034Z,42.67
2023-02-09T01:54:44.497Z,40.33
2023-02-09T01:59:51.028Z,38.23
2023-02-09T02:04:54.100Z,40.93
2023-02-09T02:09:59.006Z,34.50
2023-02-09T02:15:01.625Z,38.33
2023-02-09T02:20:29.016Z,38.10
2023-02-09T02:26:17.195Z,37.30
2023-02-09T02:31:41.620Z,27.47
2023-02-09T02:37:02.583Z,41.17
2023-02-09T02:42:39.809Z,41.23
2023-02-09T02:47:56.622Z,42.23
2023-02-09T02:53:03.726Z,39.20
2023-02-09T02:58:09.455Z,38.97
2023-02-09T03:03:31.267Z,36.20
2023-02-09T03:08:51.077Z,41.40
2023-02-09T03:13:59.208Z,37.77
2023-02-09T03:19:41.696Z,41.33
2023-02-09T03:24:52.890Z,36.97
2023-02-09T03:30:01.044Z,40.87
2023-02-09T03:35:04.398Z,38.87
2023-02-09T03:40:07.463Z,39.03
2023-02-09T03:45:10.004Z,38.63
2023-02-09T03:50:12.573Z,39.80
2023-02-09T03:55:15.200Z,39.20
2023-02-09T04:00:18.027Z,40.03
2023-02-09T04:05:23.085Z,38.20
2023-02-09T04:10:26.047Z,40.40
2023-02-09T04:15:28.598Z,40.13
2023-02-09T04:20:31.122Z,38.47
2023-02-09T04:25:33.757Z,39.23
2023-02-09T04:30:36.398Z,39.23
2023-02-09T04:35:38.989Z,36.07
2023-02-09T04:40:41.509Z,40.37
2023-02-09T04:45:44.143Z,38.67
2023-02-09T04:50:47.374Z,37.07
2023-02-09T04:55:51.324Z,41.17
2023-02-09T05:00:55.764Z,38.10
2023-02-09T05:06:00.971Z,40.77
2023-02-09T05:11:03.555Z,38.93
2023-02-09T05:16:13.415Z,38.03
2023-02-09T05:21:16.100Z,48.70
2023-02-09T05:26:18.714Z,60.97
2023-02-09T05:31:21.398Z,53.97
2023-02-09T05:36:23.894Z,56.07
2023-02-09T05:41:45.059Z,49.33
2023-02-09T05:46:47.527Z,38.07
2023-02-09T05:51:50.182Z,40.17
2023-02-09T05:56:52.859Z,35.37
2023-02-09T06:01:55.606Z,42.23
2023-02-09T06:06:58.559Z,42.70
2023-02-09T06:12:01.036Z,55.80
2023-02-09T06:17:03.604Z,44.53
2023-02-09T06:22:06.179Z,55.40
2023-02-09T06:27:08.736Z,55.83
2023-02-09T06:32:11.548Z,56.83
2023-02-09T06:37:14.270Z,54.93
2023-02-09T06:42:16.863Z,55.70
2023-02-09T06:47:19.449Z,57.43
2023-02-09T06:52:21.964Z,51.83
2023-02-09T06:57:24.539Z,48.73
2023-02-09T07:02:27.101Z,42.33
2023-02-09T07:07:29.709Z,36.83
2023-02-09T07:12:32.439Z,35.07
2023-02-09T07:17:35.015Z,41.47
2023-02-09T07:22:37.608Z,48.07
2023-02-09T07:27:44.420Z,39.27
2023-02-09T07:32:46.964Z,39.53
2023-02-09T07:37:49.519Z,41.97
2023-02-09T07:42:52.908Z,39.90
2023-02-09T07:47:55.374Z,40.97
2023-02-09T07:52:58.197Z,52.47
2023-02-09T07:58:01.110Z,55.63
2023-02-09T08:03:05.656Z,51.93
2023-02-09T08:08:08.657Z,56.27
2023-02-09T08:13:12.437Z,56.03
2023-02-09T08:18:25.495Z,55.67
2023-02-09T08:23:31.962Z,51.80
2023-02-09T08:28:43.685Z,49.63
2023-02-09T08:33:48.554Z,50.70
2023-02-09T08:38:51.223Z,50.33
2023-02-09T08:43:53.816Z,49.63
2023-02-09T08:48:56.393Z,53.07
2023-02-09T08:53:58.944Z,49.87
2023-02-09T08:59:01.509Z,50.57
2023-02-09T09:04:04.135Z,30.97
2023-02-09T09:09:06.918Z,16.00
2023-02-09T09:14:09.575Z,22.60
2023-02-09T09:19:12.106Z,30.83
2023-02-09T09:24:16.216Z,31.40
2023-02-09T09:29:18.822Z,37.47
2023-02-09T09:34:21.349Z,27.57
2023-02-09T09:39:25.659Z,33.40
2023-02-09T09:44:34.678Z,29.50
2023-02-09T09:49:37.974Z,28.00
2023-02-09T09:54:41.766Z,28.67
2023-02-09T09:59:44.500Z,25.40
2023-02-09T10:04:48.623Z,27.77
2023-02-09T10:10:03.463Z,26.57
2023-02-09T10:15:29.624Z,24.23
2023-02-09T10:20:44.490Z,21.27
2023-02-09T10:25:54.454Z,21.43
2023-02-09T10:31:00.466Z,19.93
2023-02-09T10:36:06.186Z,19.67
2023-02-09T10:41:10.565Z,20.27
2023-02-09T10:46:19.124Z,22.23
2023-02-09T10:51:30.108Z,17.20
2023-02-09T10:56:43.570Z,20.40
2023-02-09T11:01:58.467Z,19.93
2023-02-09T11:07:19.372Z,22.13
2023-02-09T11:12:23.063Z,16.47
2023-02-09T11:17:48.036Z,21.70
2023-02-09T11:22:53.235Z,20.17
2023-02-09T11:27:58.777Z,23.87
2023-02-09T11:33:29.280Z,21.10
2023-02-09T11:38:49.691Z,18.73
2023-02-09T11:43:55.321Z,19.67
2023-02-09T11:49:06.008Z,20.63
2023-02-09T11:54:23.076Z,19.50
2023-02-09T11:59:31.714Z,18.83
2023-02-09T12:04:40.213Z,20.87
2023-02-09T12:09:55.754Z,18.67
2023-02-09T12:15:20.850Z,18.47
2023-02-09T12:20:38.725Z,20.80
2023-02-09T12:25:53.265Z,19.30
2023-02-09T12:30:58.724Z,20.17
2023-02-09T12:36:01.293Z,17.93
2023-02-09T12:41:06.804Z,18.17
2023-02-09T12:46:48.495Z,18.40
2023-02-09T12:51:50.966Z,15.47
2023-02-09T12:56:53.662Z,16.97
2023-02-09T13:02:08.008Z,19.23
2023-02-09T13:07:25.309Z,19.63
2023-02-09T13:12:38.088Z,17.43
2023-02-09T13:18:00.852Z,18.87
2023-02-09T13:23:35.968Z,15.33
2023-02-09T13:28:38.545Z,17.23
2023-02-09T13:33:48.297Z,20.10
2023-02-09T13:38:51.321Z,19.73
2023-02-09T13:43:53.816Z,16.87
2023-02-09T13:49:13.264Z,16.27
2023-02-09T13:54:20.495Z,15.53
2023-02-09T13:59:23.152Z,16.43
2023-02-09T14:04:34.682Z,17.77
2023-02-09T14:09:48.828Z,16.67
2023-02-09T14:15:18.648Z,17.93
2023-02-09T14:20:24.635Z,18.97
2023-02-09T14:25:28.786Z,17.87
2023-02-09T14:30:34.289Z,17.43
2023-02-09T14:35:47.598Z,17.07
2023-02-09T14:40:50.500Z,13.47
2023-02-09T14:46:01.232Z,17.23
2023-02-09T14:51:17.554Z,13.20
2023-02-09T14:56:35.472Z,13.73
2023-02-09T15:01:37.972Z,12.63
2023-02-09T15:06:42.789Z,14.53
2023-02-09T15:12:04.012Z,19.93
2023-02-09T15:17:18.554Z,19.97
2023-02-09T15:22:22.446Z,21.67
2023-02-09T15:27:24.957Z,28.43
2023-02-09T15:32:28.184Z,26.77
2023-02-09T15:37:38.473Z,27.03
2023-02-09T15:43:00.387Z,24.33
2023-02-09T15:48:03.833Z,30.40
2023-02-09T15:53:10.812Z,33.10
2023-02-09T15:58:15.849Z,33.20
2023-02-09T16:03:20.369Z,33.43
2023-02-09T16:08:26.092Z,37.13
2023-02-09T16:13:28.770Z,43.70
2023-02-09T16:18:31.353Z,36.33
2023-02-09T16:23:35.152Z,34.27
2023-02-09T16:28:37.706Z,32.80
2023-02-09T16:33:41.672Z,56.60
2023-02-09T16:38:44.857Z,60.40
2023-02-09T16:43:47.399Z,64.37
2023-02-09T16:48:50.336Z,20.83
2023-02-09T16:53:53.123Z,21.07
2023-02-09T16:58:55.615Z,26.03
2023-02-09T17:03:58.287Z,36.27
2023-02-09T17:09:00.808Z,42.57
2023-02-09T17:14:03.411Z,41.13
2023-02-09T17:19:12.876Z,45.43
2023-02-09T17:24:17.313Z,53.70
2023-02-09T17:29:22.014Z,52.40
2023-02-09T17:34:28.356Z,49.03
2023-02-09T17:39:31.037Z,54.23
2023-02-09T17:44:45.670Z,52.30
2023-02-09T17:49:49.170Z,57.90
2023-02-09T17:54:51.602Z,53.67
2023-02-09T17:59:54.142Z,57.37
2023-02-09T18:04:56.692Z,59.43
2023-02-09T18:09:59.216Z,57.83
2023-02-09T18:15:01.749Z,36.07
2023-02-09T18:20:04.959Z,50.10
2023-02-09T18:25:11.527Z,42.00
2023-02-09T18:30:14.509Z,35.37
2023-02-09T18:35:22.270Z,36.97
2023-02-09T18:40:25.363Z,29.50
2023-02-09T18:45:28.540Z,31.87
2023-02-09T18:50:33.574Z,28.37
2023-02-09T18:55:36.176Z,31.33
2023-02-09T19:00:38.659Z,30.57
2023-02-09T19:05:41.567Z,28.33
2023-02-09T19:10:44.430Z,26.73
2023-02-09T19:15:47.178Z,26.03
2023-02-09T19:20:49.868Z,27.00
2023-02-09T19:26:03.304Z,30.80
2023-02-09T19:31:12.721Z,27.37
2023-02-09T19:36:15.352Z,28.10
2023-02-09T19:41:17.977Z,27.57
2023-02-09T19:46:20.665Z,26.40
2023-02-09T19:51:23.808Z,24.90
2023-02-09T19:56:26.279Z,23.70
2023-02-09T20:01:31.370Z,21.60
2023-02-09T20:06:34.155Z,22.13
2023-02-09T20:11:36.793Z,21.07
2023-02-09T20:16:40.190Z,23.47
2023-02-09T20:21:42.907Z,20.47
2023-02-09T20:26:46.690Z,20.97
2023-02-09T20:31:49.645Z,20.73
2023-02-09T20:36:52.230Z,21.87
2023-02-09T20:42:15.506Z,21.03
2023-02-09T20:47:18.395Z,23.50
2023-02-09T20:52:20.851Z,21.80
2023-02-09T20:57:32.105Z,21.30
2023-02-09T21:02:34.629Z,20.50
2023-02-09T21:07:37.264Z,22.10
2023-02-09T21:12:41.089Z,22.70
2023-02-09T21:17:48.806Z,21.77
2023-02-09T21:22:51.746Z,21.90
2023-02-09T21:27:55.975Z,21.73
2023-02-09T21:33:00.472Z,20.87
2023-02-09T21:38:03.319Z,16.93
2023-02-09T21:43:05.951Z,19.37
2023-02-09T21:48:08.480Z,17.83
2023-02-09T21:53:10.974Z,21.03
2023-02-09T21:58:13.452Z,17.70
2023-02-09T22:03:15.989Z,18.83
2023-02-09T22:08:18.630Z,19.90
2023-02-09T22:13:21.308Z,13.77
2023-02-09T22:18:24.321Z,20.70
2023-02-09T22:23:29.689Z,20.50
2023-02-09T22:28:36.019Z,20.23
2023-02-09T22:33:39.563Z,18.43
2023-02-09T22:38:42.373Z,18.20
2023-02-09T22:43:45.354Z,18.90
2023-02-09T22:48:56.492Z,21.43
2023-02-09T22:54:00.184Z,20.30
2023-02-09T22:59:02.719Z,20.87
2023-02-09T23:04:05.400Z,20.50
2023-02-09T23:09:08.740Z,17.53
2023-02-09T23:14:12.638Z,19.03
2023-02-09T23:19:19.972Z,17.87
2023-02-09T23:24:22.705Z,18.07
2023-02-09T23:29:25.212Z,19.83
2023-02-09T23:34:27.811Z,18.87
2023-02-09T23:39:30.482Z,17.60
2023-02-09T23:44:33.164Z,18.03
2023-02-09T23:49:35.735Z,17.03
2023-02-09T23:54:38.222Z,14.83
2023-02-09T23:59:40.802Z,19.30
